Time;durP1;ratioP1;P1;durP2;ratioP2;P2;SDS_P1;SDS_P2;PMS_P1;PMS_P2;Temp;Humidity;BMP_temperature;BMP_pressure;BME280_temperature;BME280_humidity;BME280_pressure;Samples;Min_cycle;Max_cycle;Signal;HPM_P1;HPM_P2
2022/01/06 00:01:40;;;;;;;0.80;0.80;;;2.50;99.90;;;;;;5068032;28;20098;-85
2022/01/06 00:04:05;;;;;;;0.75;0.75;;;2.60;99.90;;;;;;5074405;28;20047;-85
2022/01/06 00:06:37;;;;;;;4.57;1.23;;;2.50;99.90;;;;;;5066461;28;20048;-85
2022/01/06 00:09:03;;;;;;;0.73;0.73;;;2.50;99.90;;;;;;5066842;28;20043;-86
2022/01/06 00:11:29;;;;;;;0.80;0.80;;;2.40;99.90;;;;;;5067367;28;20055;-86
2022/01/06 00:14:10;;;;;;;0.80;0.80;;;2.40;99.90;;;;;;5067902;28;20045;-86
2022/01/06 00:24:50;;;;;;;1.30;1.20;;;2.10;99.90;;;;;;5084138;28;20037;-85
2022/01/06 00:27:15;;;;;;;0.70;0.70;;;2.10;99.90;;;;;;5069323;28;20076;-84
2022/01/06 00:29:42;;;;;;;0.82;0.82;;;2.00;99.90;;;;;;5063761;28;20080;-85
2022/01/06 00:32:08;;;;;;;0.80;0.80;;;2.00;99.90;;;;;;5051629;28;20095;-84
2022/01/06 00:34:34;;;;;;;0.85;0.85;;;1.90;99.90;;;;;;5068798;28;20398;-85
2022/01/06 00:37:01;;;;;;;0.70;0.70;;;1.80;99.90;;;;;;5075245;28;20052;-84
2022/01/06 00:39:28;;;;;;;0.70;0.70;;;1.80;99.90;;;;;;5059298;28;20028;-84
2022/01/06 00:41:56;;;;;;;0.80;0.80;;;1.80;99.90;;;;;;5073074;28;20056;-85
2022/01/06 00:44:21;;;;;;;0.70;0.70;;;1.80;99.90;;;;;;5075391;28;20041;-85
2022/01/06 00:46:47;;;;;;;0.70;0.70;;;1.70;99.90;;;;;;5063064;28;20052;-85
2022/01/06 00:49:13;;;;;;;0.80;0.80;;;1.70;99.90;;;;;;5058148;28;20131;-85
2022/01/06 00:51:38;;;;;;;0.80;0.80;;;1.80;99.90;;;;;;5071263;28;20064;-86
2022/01/06 00:54:04;;;;;;;0.70;0.70;;;1.80;99.90;;;;;;5069892;28;20049;-86
2022/01/06 00:56:29;;;;;;;0.80;0.80;;;1.80;99.90;;;;;;5059563;28;20040;-85
2022/01/06 00:58:55;;;;;;;0.73;0.73;;;2.00;99.90;;;;;;5066027;28;20588;-86
2022/01/06 01:01:20;;;;;;;0.80;0.80;;;1.90;99.90;;;;;;5051400;28;20070;-86
2022/01/06 01:03:46;;;;;;;0.80;0.80;;;1.90;99.90;;;;;;5071731;28;20037;-85
2022/01/06 01:06:12;;;;;;;3.53;1.20;;;1.90;99.90;;;;;;5072662;28;20044;-85
2022/01/06 01:08:38;;;;;;;0.80;0.80;;;1.90;99.90;;;;;;5077014;28;20091;-85
2022/01/06 01:11:04;;;;;;;0.90;0.90;;;1.90;99.90;;;;;;5049282;28;20270;-86
2022/01/06 01:13:32;;;;;;;1.33;1.23;;;1.90;99.90;;;;;;5059251;28;20075;-86
2022/01/06 01:16:08;;;;;;;1.40;1.35;;;1.90;99.90;;;;;;5067471;28;20071;-86
2022/01/06 01:18:34;;;;;;;0.70;0.70;;;1.90;99.90;;;;;;5061870;28;20087;-86
2022/01/06 01:20:59;;;;;;;0.80;0.80;;;1.90;99.90;;;;;;5067573;28;20045;-85
2022/01/06 01:23:25;;;;;;;0.73;0.73;;;1.90;99.90;;;;;;5050946;28;20078;-86
2022/01/06 01:25:51;;;;;;;0.80;0.80;;;1.80;99.90;;;;;;5076075;28;20041;-85
2022/01/06 01:28:17;;;;;;;0.80;0.80;;;1.80;99.90;;;;;;5070076;28;20036;-86
2022/01/06 01:31:02;;;;;;;0.70;0.70;;;1.90;99.90;;;;;;5067083;28;20056;-85
2022/01/06 01:33:29;;;;;;;0.80;0.80;;;1.80;99.90;;;;;;5061554;28;20044;-87
2022/01/06 01:35:55;;;;;;;0.80;0.80;;;1.80;99.90;;;;;;5059266;28;20048;-86
2022/01/06 01:38:20;;;;;;;0.82;0.82;;;1.80;99.90;;;;;;5050442;28;20041;-85
2022/01/06 01:40:46;;;;;;;0.77;0.77;;;1.70;99.90;;;;;;5061566;28;20078;-84
2022/01/06 01:43:11;;;;;;;0.80;0.80;;;1.70;99.90;;;;;;5050623;28;20098;-85
2022/01/06 01:45:45;;;;;;;0.63;0.63;;;1.70;99.90;;;;;;5048741;28;20124;-85
2022/01/06 01:48:18;;;;;;;0.88;0.88;;;1.70;99.90;;;;;;5059925;28;20033;-85
2022/01/06 01:50:44;;;;;;;0.70;0.70;;;1.80;99.90;;;;;;5069309;28;20134;-84
2022/01/06 01:53:09;;;;;;;0.95;0.90;;;1.80;99.90;;;;;;5063102;28;20423;-85
2022/01/06 01:55:36;;;;;;;1.00;1.00;;;1.80;99.90;;;;;;5074088;28;20052;-85
2022/01/06 01:58:02;;;;;;;0.70;0.70;;;1.80;99.90;;;;;;5054692;28;20079;-85
2022/01/06 02:00:30;;;;;;;1.52;1.42;;;1.80;99.90;;;;;;5076680;28;20120;-85
2022/01/06 02:02:56;;;;;;;1.23;1.17;;;1.70;99.90;;;;;;5070955;28;20072;-86
2022/01/06 02:05:26;;;;;;;0.80;0.80;;;1.70;99.90;;;;;;5053086;28;20376;-85
2022/01/06 02:07:54;;;;;;;0.70;0.70;;;1.70;99.90;;;;;;5060928;28;20036;-85
2022/01/06 02:10:20;;;;;;;0.80;0.80;;;1.60;99.90;;;;;;5059728;28;20033;-85
2022/01/06 02:12:49;;;;;;;0.80;0.80;;;1.70;99.90;;;;;;5059600;28;20062;-86
2022/01/06 02:15:16;;;;;;;0.98;0.98;;;1.60;99.90;;;;;;5057930;28;20033;-85
2022/01/06 02:17:43;;;;;;;0.80;0.80;;;1.60;99.90;;;;;;5056581;28;20048;-85
2022/01/06 02:20:13;;;;;;;3.63;0.95;;;1.60;99.90;;;;;;5054638;28;20032;-86
2022/01/06 02:22:39;;;;;;;0.80;0.80;;;1.60;99.90;;;;;;5057118;28;20045;-86
2022/01/06 02:25:12;;;;;;;0.70;0.70;;;1.60;99.90;;;;;;5055771;28;20052;-86
2022/01/06 02:27:37;;;;;;;0.83;0.83;;;1.70;99.90;;;;;;5059087;28;20053;-86
2022/01/06 02:30:05;;;;;;;0.80;0.80;;;1.50;99.90;;;;;;5078134;28;20044;-85
2022/01/06 02:32:30;;;;;;;0.82;0.82;;;1.50;99.90;;;;;;5044816;28;20091;-85
2022/01/06 02:34:56;;;;;;;0.80;0.80;;;1.50;99.90;;;;;;5053660;28;20053;-85
2022/01/06 02:37:22;;;;;;;0.80;0.80;;;1.40;99.90;;;;;;5060460;28;20044;-86
2022/01/06 02:39:47;;;;;;;0.82;0.82;;;1.40;99.90;;;;;;5071906;28;20068;-86
2022/01/06 02:42:13;;;;;;;0.80;0.80;;;1.30;99.90;;;;;;5076320;28;20056;-85
2022/01/06 02:44:39;;;;;;;0.90;0.90;;;1.20;99.90;;;;;;5058825;28;20399;-86
2022/01/06 02:47:06;;;;;;;1.23;1.13;;;1.10;99.90;;;;;;5069888;28;20114;-85
2022/01/06 02:49:33;;;;;;;0.80;0.80;;;1.10;99.90;;;;;;5080064;28;20036;-86
2022/01/06 02:51:59;;;;;;;0.80;0.80;;;1.00;99.90;;;;;;5057350;28;20045;-86
2022/01/06 02:54:24;;;;;;;0.90;0.90;;;1.00;99.90;;;;;;5053338;28;20033;-86
2022/01/06 02:56:52;;;;;;;0.80;0.80;;;1.00;99.90;;;;;;5053068;28;20151;-86
2022/01/06 02:59:17;;;;;;;1.00;1.00;;;0.90;99.90;;;;;;5049939;28;20041;-86
2022/01/06 03:01:44;;;;;;;0.80;0.80;;;0.80;99.90;;;;;;5060175;28;20043;-86
2022/01/06 03:04:11;;;;;;;0.80;0.80;;;0.70;99.90;;;;;;5058408;28;20041;-85
2022/01/06 03:06:37;;;;;;;0.73;0.73;;;0.70;99.90;;;;;;5068221;28;20052;-86
2022/01/06 03:09:03;;;;;;;0.80;0.80;;;0.60;99.90;;;;;;5069331;28;20080;-86
2022/01/06 03:11:29;;;;;;;1.00;1.00;;;0.60;99.90;;;;;;5067979;28;20041;-85
2022/01/06 03:13:56;;;;;;;1.05;1.05;;;0.60;99.90;;;;;;5063432;28;20047;-86
2022/01/06 03:16:21;;;;;;;0.90;0.90;;;0.60;99.90;;;;;;5074048;28;20112;-85
2022/01/06 03:18:47;;;;;;;0.90;0.90;;;0.60;99.90;;;;;;5075391;28;20052;-86
2022/01/06 03:21:13;;;;;;;0.80;0.80;;;0.50;99.90;;;;;;5049651;28;20048;-86
2022/01/06 03:23:40;;;;;;;0.80;0.80;;;0.40;99.90;;;;;;5076910;28;20033;-85
2022/01/06 03:26:05;;;;;;;0.80;0.80;;;0.40;99.90;;;;;;5074929;28;20941;-86
2022/01/06 03:28:32;;;;;;;0.80;0.80;;;0.40;99.90;;;;;;5062238;28;20037;-85
2022/01/06 03:30:57;;;;;;;0.90;0.90;;;0.30;99.90;;;;;;5076570;28;20045;-85
2022/01/06 03:33:23;;;;;;;0.80;0.80;;;0.30;99.90;;;;;;5077673;28;20128;-85
2022/01/06 03:35:49;;;;;;;0.90;0.90;;;0.40;99.90;;;;;;5073303;28;20036;-86
2022/01/06 03:38:14;;;;;;;0.80;0.80;;;0.30;99.90;;;;;;5056998;28;20060;-86
2022/01/06 03:40:40;;;;;;;0.80;0.80;;;0.30;99.90;;;;;;5063650;28;20029;-85
2022/01/06 03:43:06;;;;;;;0.80;0.80;;;0.30;99.90;;;;;;5061112;28;20041;-86
2022/01/06 03:45:33;;;;;;;0.90;0.90;;;0.30;99.90;;;;;;5057581;28;20093;-86
2022/01/06 03:47:59;;;;;;;1.00;1.00;;;0.20;99.90;;;;;;5055958;28;20508;-85
2022/01/06 03:50:25;;;;;;;0.73;0.73;;;0.20;99.90;;;;;;5058739;28;20047;-86
2022/01/06 03:52:50;;;;;;;0.88;0.88;;;0.20;99.90;;;;;;5051879;28;20033;-86
2022/01/06 03:55:18;;;;;;;0.80;0.80;;;0.10;99.90;;;;;;5076534;28;20101;-86
2022/01/06 03:57:46;;;;;;;0.90;0.90;;;0.10;99.90;;;;;;5060020;28;20401;-85
2022/01/06 04:00:15;;;;;;;0.80;0.80;;;0.20;99.90;;;;;;5071403;28;20040;-86
2022/01/06 04:02:41;;;;;;;0.90;0.90;;;0.00;99.90;;;;;;5056756;28;20090;-85
2022/01/06 04:05:08;;;;;;;0.82;0.82;;;0.00;99.90;;;;;;5064117;28;20040;-85
2022/01/06 04:07:34;;;;;;;0.82;0.82;;;-0.10;99.90;;;;;;5078473;28;20045;-85
2022/01/06 04:10:00;;;;;;;0.88;0.88;;;-0.10;99.90;;;;;;5073576;28;20460;-85
2022/01/06 04:12:26;;;;;;;1.35;1.20;;;-0.10;99.90;;;;;;5077912;28;20123;-85
2022/01/06 04:14:52;;;;;;;0.90;0.90;;;-0.20;99.90;;;;;;5079652;28;20045;-85
2022/01/06 04:17:17;;;;;;;0.90;0.90;;;-0.20;99.90;;;;;;5076967;28;20123;-85
2022/01/06 04:19:43;;;;;;;0.90;0.90;;;-0.20;99.90;;;;;;5066013;28;20442;-85
2022/01/06 04:22:08;;;;;;;0.80;0.80;;;-0.20;99.90;;;;;;5061390;28;20052;-84
2022/01/06 04:24:34;;;;;;;0.80;0.80;;;-0.20;99.90;;;;;;5056913;28;20044;-85
2022/01/06 04:27:00;;;;;;;0.90;0.90;;;-0.20;99.90;;;;;;5072085;28;20469;-85
2022/01/06 04:29:26;;;;;;;0.80;0.80;;;-0.20;99.90;;;;;;5055502;28;20041;-85
2022/01/06 04:31:52;;;;;;;0.80;0.80;;;-0.30;99.90;;;;;;5076200;28;20108;-85
2022/01/06 04:34:18;;;;;;;20.77;1.45;;;-0.30;99.90;;;;;;5076348;28;20521;-85
2022/01/06 04:36:49;;;;;;;0.90;0.90;;;-0.30;99.90;;;;;;5051801;28;20057;-85
2022/01/06 04:39:15;;;;;;;0.90;0.90;;;-0.40;99.90;;;;;;5057829;28;20041;-85
2022/01/06 04:41:41;;;;;;;0.90;0.90;;;-0.20;99.90;;;;;;5059349;28;20043;-85
2022/01/06 04:44:06;;;;;;;0.85;0.85;;;-0.40;99.90;;;;;;5059749;28;20121;-84
2022/01/06 04:46:32;;;;;;;0.90;0.90;;;-0.40;99.90;;;;;;5059838;28;20060;-85
2022/01/06 04:48:57;;;;;;;0.80;0.80;;;-0.40;99.90;;;;;;5061509;28;20059;-85
2022/01/06 04:51:23;;;;;;;1.08;0.98;;;-0.50;99.90;;;;;;5075796;28;20051;-84
2022/01/06 04:53:48;;;;;;;1.27;1.17;;;-0.50;99.90;;;;;;5075668;28;20029;-85
2022/01/06 04:56:14;;;;;;;0.90;0.90;;;-0.50;99.90;;;;;;5061746;28;20037;-85
2022/01/06 04:58:40;;;;;;;0.80;0.80;;;-0.50;99.90;;;;;;5075028;28;20671;-84
2022/01/06 05:01:05;;;;;;;0.80;0.80;;;-0.50;99.90;;;;;;5073442;28;20059;-85
2022/01/06 05:03:31;;;;;;;0.80;0.80;;;-0.50;99.90;;;;;;5070809;28;20036;-85
2022/01/06 05:05:56;;;;;;;0.75;0.75;;;-0.50;99.90;;;;;;5074147;28;20078;-85
2022/01/06 05:08:22;;;;;;;0.90;0.90;;;-0.50;99.90;;;;;;5055264;28;20037;-85
2022/01/06 05:10:47;;;;;;;0.90;0.90;;;-0.50;99.90;;;;;;5055398;28;20051;-84
2022/01/06 05:13:13;;;;;;;0.95;0.95;;;-0.50;99.90;;;;;;5059178;28;20115;-85
2022/01/06 05:15:38;;;;;;;0.80;0.80;;;-0.50;99.90;;;;;;5053196;28;20064;-85
2022/01/06 05:18:04;;;;;;;0.90;0.90;;;-0.50;99.90;;;;;;5059746;28;20045;-84
2022/01/06 05:20:30;;;;;;;0.80;0.80;;;-0.50;99.90;;;;;;5075649;28;20159;-85
2022/01/06 05:22:57;;;;;;;0.80;0.80;;;-0.40;99.90;;;;;;5068609;28;20096;-85
2022/01/06 05:25:28;;;;;;;0.88;0.88;;;-0.40;99.90;;;;;;5052036;28;20086;-85
2022/01/06 05:27:54;;;;;;;0.90;0.90;;;-0.40;99.90;;;;;;5072682;28;20045;-85
2022/01/06 05:30:20;;;;;;;0.90;0.90;;;-0.40;99.90;;;;;;5071394;28;20048;-85
2022/01/06 05:32:46;;;;;;;0.90;0.90;;;-0.40;99.90;;;;;;5073052;28;20096;-84
2022/01/06 05:35:12;;;;;;;0.80;0.80;;;-0.40;99.90;;;;;;5076030;28;20060;-85
2022/01/06 05:37:37;;;;;;;0.90;0.90;;;-0.50;99.90;;;;;;5075557;28;20155;-84
2022/01/06 05:40:04;;;;;;;0.90;0.90;;;-0.50;99.90;;;;;;5074821;28;20527;-84
2022/01/06 05:42:29;;;;;;;0.90;0.90;;;-0.50;99.90;;;;;;5057994;28;20052;-84
2022/01/06 05:44:55;;;;;;;0.90;0.90;;;-0.50;99.90;;;;;;5072087;28;20041;-84
2022/01/06 05:47:21;;;;;;;0.85;0.85;;;-0.50;99.90;;;;;;5076938;28;20056;-84
2022/01/06 05:49:46;;;;;;;0.80;0.80;;;-0.50;99.90;;;;;;5053938;28;20094;-85
2022/01/06 05:52:12;;;;;;;0.90;0.90;;;-0.50;99.90;;;;;;5068256;28;20119;-84
2022/01/06 05:54:39;;;;;;;0.98;0.98;;;-0.50;99.90;;;;;;5055805;28;20114;-85
2022/01/06 05:57:04;;;;;;;0.80;0.80;;;-0.60;99.90;;;;;;5072726;28;20075;-84
2022/01/06 05:59:32;;;;;;;0.88;0.88;;;-0.60;99.90;;;;;;5065435;28;20036;-85
2022/01/06 06:01:58;;;;;;;0.90;0.90;;;-0.70;99.90;;;;;;5067621;28;20057;-84
2022/01/06 06:04:23;;;;;;;0.90;0.90;;;-0.70;99.90;;;;;;5076760;28;20052;-84
2022/01/06 06:06:49;;;;;;;3.67;2.50;;;-0.80;99.90;;;;;;5073412;28;20146;-85
2022/01/06 06:09:14;;;;;;;0.77;0.77;;;-0.80;99.90;;;;;;5056719;28;20051;-85
2022/01/06 06:11:40;;;;;;;0.90;0.90;;;-0.80;99.90;;;;;;5067211;28;20119;-84
2022/01/06 06:14:06;;;;;;;0.80;0.80;;;-0.80;99.90;;;;;;5091638;28;20033;-84
2022/01/06 06:16:31;;;;;;;1.10;1.10;;;-0.80;99.90;;;;;;5074714;28;20101;-84
2022/01/06 06:18:57;;;;;;;0.88;0.88;;;-0.80;99.90;;;;;;5076175;28;20152;-84
2022/01/06 06:21:22;;;;;;;0.80;0.80;;;-0.80;99.90;;;;;;5057744;28;20052;-84
2022/01/06 06:23:49;;;;;;;1.38;1.20;;;-0.80;99.90;;;;;;5058943;28;20041;-84
2022/01/06 06:26:15;;;;;;;1.00;1.00;;;-0.70;99.90;;;;;;5064252;28;20061;-85
2022/01/06 06:28:41;;;;;;;1.25;1.15;;;-0.80;99.90;;;;;;5051274;28;20068;-84
2022/01/06 06:31:06;;;;;;;0.80;0.80;;;-0.80;99.90;;;;;;5050854;28;20052;-84
2022/01/06 06:33:32;;;;;;;0.90;0.90;;;-0.80;99.90;;;;;;5052815;28;20029;-85
2022/01/06 06:35:57;;;;;;;0.88;0.88;;;-0.80;99.90;;;;;;5056758;28;20055;-84
2022/01/06 06:38:23;;;;;;;0.80;0.80;;;-0.80;99.90;;;;;;5071568;28;20051;-84
2022/01/06 06:40:49;;;;;;;1.00;1.00;;;-0.80;99.90;;;;;;5068557;28;20057;-83
2022/01/06 06:43:14;;;;;;;1.00;1.00;;;-0.80;99.90;;;;;;5079495;28;20048;-84
2022/01/06 06:45:41;;;;;;;0.80;0.80;;;-0.80;99.90;;;;;;5079471;28;20469;-84
2022/01/06 06:48:07;;;;;;;0.90;0.90;;;-0.90;99.90;;;;;;5068968;28;20200;-84
2022/01/06 06:50:33;;;;;;;0.90;0.90;;;-0.80;99.90;;;;;;5061740;28;20055;-84
2022/01/06 06:52:59;;;;;;;0.90;0.90;;;-0.90;99.90;;;;;;5050134;28;20128;-83
2022/01/06 06:55:24;;;;;;;0.80;0.80;;;-1.00;99.90;;;;;;5056017;28;20083;-83
2022/01/06 06:57:50;;;;;;;0.80;0.80;;;-0.90;99.90;;;;;;5045967;28;20037;-85
2022/01/06 07:00:16;;;;;;;0.93;0.93;;;-1.00;99.90;;;;;;5075516;28;20033;-82
2022/01/06 07:02:42;;;;;;;1.00;1.00;;;-1.00;99.90;;;;;;5076993;28;20071;-83
2022/01/06 07:05:08;;;;;;;1.00;1.00;;;-1.00;99.90;;;;;;5060761;28;20099;-82
2022/01/06 07:07:34;;;;;;;0.82;0.82;;;-1.10;99.90;;;;;;5070398;28;20076;-82
2022/01/06 07:10:00;;;;;;;1.05;1.05;;;-1.10;99.90;;;;;;5059330;28;20041;-82
2022/01/06 07:12:25;;;;;;;0.80;0.80;;;-1.10;99.90;;;;;;5078991;28;20087;-82
2022/01/06 07:14:51;;;;;;;0.90;0.90;;;-1.10;99.90;;;;;;5053043;28;20059;-81
2022/01/06 07:17:17;;;;;;;0.90;0.90;;;-1.10;99.90;;;;;;5069879;28;20094;-82
2022/01/06 07:19:42;;;;;;;29.45;1.98;;;-1.10;99.90;;;;;;5070427;28;20037;-81
2022/01/06 07:22:08;;;;;;;0.90;0.90;;;-1.10;99.90;;;;;;5075378;28;20049;-81
2022/01/06 07:24:34;;;;;;;0.85;0.85;;;-1.10;99.90;;;;;;5065814;28;20064;-81
2022/01/06 07:27:00;;;;;;;0.80;0.80;;;-1.10;99.90;;;;;;5066108;28;20044;-81
2022/01/06 07:29:27;;;;;;;0.90;0.90;;;-1.00;99.90;;;;;;5077345;28;20097;-81
2022/01/06 07:31:53;;;;;;;0.70;0.70;;;-1.00;99.90;;;;;;5075154;28;20067;-81
2022/01/06 07:34:18;;;;;;;1.10;1.10;;;-1.00;99.90;;;;;;5071618;28;20068;-80
2022/01/06 07:36:44;;;;;;;0.80;0.80;;;-1.00;99.90;;;;;;5068119;28;20068;-82
2022/01/06 07:39:09;;;;;;;1.00;1.00;;;-1.00;99.90;;;;;;5063031;28;20048;-79
2022/01/06 07:41:35;;;;;;;0.80;0.80;;;-1.00;99.90;;;;;;5074769;28;20124;-81
2022/01/06 07:44:02;;;;;;;0.90;0.90;;;-0.90;99.90;;;;;;5077697;28;20146;-81
2022/01/06 07:46:28;;;;;;;0.90;0.90;;;-0.90;99.90;;;;;;5077188;28;20048;-82
2022/01/06 07:48:57;;;;;;;0.90;0.90;;;-0.90;99.90;;;;;;5079092;28;20106;-81
2022/01/06 07:51:28;;;;;;;0.77;0.77;;;-0.80;99.90;;;;;;5072065;28;20104;-81
2022/01/06 07:53:55;;;;;;;0.77;0.77;;;-0.80;99.90;;;;;;5074984;28;20040;-82
2022/01/06 07:56:21;;;;;;;0.88;0.88;;;-0.80;99.90;;;;;;5070473;28;20087;-81
2022/01/06 07:58:47;;;;;;;0.80;0.80;;;-0.70;99.90;;;;;;5075194;28;20052;-82
2022/01/06 08:01:13;;;;;;;0.90;0.90;;;-0.60;99.90;;;;;;5072372;28;20036;-82
2022/01/06 08:03:41;;;;;;;0.90;0.90;;;-0.70;99.90;;;;;;5055925;28;20040;-82
2022/01/06 08:06:07;;;;;;;0.98;0.98;;;-0.80;99.90;;;;;;5075798;28;20112;-81
2022/01/06 08:08:33;;;;;;;0.98;0.98;;;-0.80;99.90;;;;;;5073773;28;20105;-81
2022/01/06 08:10:59;;;;;;;0.90;0.90;;;-0.80;99.90;;;;;;5074710;28;20064;-81
2022/01/06 08:13:24;;;;;;;0.90;0.90;;;-0.70;99.90;;;;;;5073678;28;20112;-82
2022/01/06 08:15:50;;;;;;;0.98;0.98;;;-0.80;99.90;;;;;;5076409;28;20048;-81
2022/01/06 08:18:15;;;;;;;0.90;0.90;;;-0.80;99.90;;;;;;5074130;28;20071;-81
2022/01/06 08:20:41;;;;;;;0.90;0.90;;;-0.80;99.90;;;;;;5070211;28;20044;-80
2022/01/06 08:23:07;;;;;;;0.80;0.80;;;0.00;99.90;;;;;;5072786;28;20055;-81
2022/01/06 08:25:33;;;;;;;0.80;0.80;;;-0.80;99.90;;;;;;5077665;28;20037;-82
2022/01/06 08:27:58;;;;;;;0.82;0.82;;;-0.80;99.90;;;;;;5076173;28;20060;-82
2022/01/06 08:30:24;;;;;;;0.80;0.80;;;-0.80;99.90;;;;;;5077035;28;20040;-82
2022/01/06 08:32:50;;;;;;;0.80;0.80;;;-0.60;99.90;;;;;;5076392;28;20670;-82
2022/01/06 08:35:15;;;;;;;0.90;0.90;;;-0.70;99.90;;;;;;5078512;28;20037;-82
2022/01/06 08:37:41;;;;;;;0.80;0.80;;;-0.50;99.90;;;;;;5080125;28;20421;-82
2022/01/06 08:40:08;;;;;;;0.90;0.90;;;-0.50;99.90;;;;;;5077757;28;20045;-82
2022/01/06 08:42:34;;;;;;;0.90;0.90;;;-0.50;99.90;;;;;;5074794;28;20045;-82
2022/01/06 08:44:59;;;;;;;1.00;1.00;;;-0.50;99.90;;;;;;5070799;28;20045;-82
2022/01/06 08:47:25;;;;;;;0.90;0.90;;;-0.40;99.90;;;;;;5070923;28;20139;-83
2022/01/06 08:49:50;;;;;;;0.90;0.90;;;-0.30;99.90;;;;;;5074279;28;20044;-83
2022/01/06 08:52:16;;;;;;;0.90;0.90;;;-0.20;99.90;;;;;;5057889;28;20504;-81
2022/01/06 08:54:42;;;;;;;1.15;1.10;;;-0.20;99.90;;;;;;5070218;28;20049;-81
2022/01/06 08:57:07;;;;;;;0.80;0.80;;;-0.10;99.90;;;;;;5069033;28;20049;-82
2022/01/06 08:59:33;;;;;;;0.80;0.80;;;0.00;99.90;;;;;;5069699;28;20041;-82
2022/01/06 09:01:59;;;;;;;0.90;0.90;;;0.10;99.90;;;;;;5068487;28;20288;-82
2022/01/06 09:04:24;;;;;;;0.90;0.90;;;0.00;99.90;;;;;;5071250;28;20053;-82
2022/01/06 09:06:51;;;;;;;0.80;0.80;;;0.00;99.90;;;;;;5072959;28;20174;-82
2022/01/06 09:09:18;;;;;;;0.73;0.73;;;-0.10;99.90;;;;;;5063643;28;20087;-82
2022/01/06 09:11:44;;;;;;;0.80;0.80;;;-0.10;99.90;;;;;;5064453;28;20045;-82
2022/01/06 09:14:10;;;;;;;0.90;0.90;;;-0.10;99.90;;;;;;5066519;28;20041;-83
2022/01/06 09:16:37;;;;;;;0.70;0.70;;;-0.10;99.90;;;;;;5071916;28;20491;-83
2022/01/06 09:19:04;;;;;;;0.80;0.80;;;-0.10;99.90;;;;;;5068531;28;20508;-82
2022/01/06 09:21:29;;;;;;;0.90;0.90;;;-0.10;99.90;;;;;;5066574;28;20117;-84
2022/01/06 09:23:57;;;;;;;0.90;0.90;;;0.10;99.90;;;;;;5065249;28;20623;-81
2022/01/06 09:26:22;;;;;;;0.75;0.75;;;-0.10;99.90;;;;;;5045442;28;20040;-81
2022/01/06 09:28:48;;;;;;;0.90;0.90;;;0.00;99.90;;;;;;5066315;28;20048;-81
2022/01/06 09:31:13;;;;;;;1.10;1.10;;;0.00;99.90;;;;;;5064922;28;20075;-80
2022/01/06 09:33:39;;;;;;;0.90;0.90;;;0.10;99.90;;;;;;5073221;28;20055;-80
2022/01/06 09:36:05;;;;;;;0.80;0.80;;;0.10;99.90;;;;;;5063640;28;20723;-81
2022/01/06 09:38:30;;;;;;;0.80;0.80;;;0.20;99.90;;;;;;5066168;28;20036;-83
2022/01/06 09:40:56;;;;;;;0.80;0.80;;;0.20;99.90;;;;;;5067685;28;20040;-83
2022/01/06 09:43:26;;;;;;;0.80;0.80;;;0.30;99.90;;;;;;5053613;28;20040;-82
2022/01/06 09:45:52;;;;;;;0.90;0.90;;;0.30;99.90;;;;;;5077041;28;20052;-83
2022/01/06 09:48:20;;;;;;;0.70;0.70;;;0.40;99.90;;;;;;5064972;28;20404;-83
2022/01/06 09:50:46;;;;;;;0.80;0.80;;;0.40;99.90;;;;;;5071448;28;20045;-83
2022/01/06 09:53:12;;;;;;;0.90;0.90;;;0.50;99.90;;;;;;5072491;28;20052;-82
2022/01/06 09:55:39;;;;;;;0.80;0.80;;;0.50;99.90;;;;;;5069589;28;20120;-81
2022/01/06 09:58:05;;;;;;;0.80;0.80;;;0.60;99.90;;;;;;5065837;28;20048;-83
2022/01/06 10:00:32;;;;;;;0.80;0.80;;;0.60;99.90;;;;;;5072946;28;20036;-82
2022/01/06 10:03:01;;;;;;;0.80;0.80;;;0.70;99.90;;;;;;5046544;28;20059;-82
2022/01/06 10:05:40;;;;;;;0.80;0.80;;;0.70;99.90;;;;;;5072223;28;20040;-82
2022/01/06 10:08:07;;;;;;;0.90;0.90;;;0.80;99.90;;;;;;5060699;28;20044;-83
2022/01/06 10:10:34;;;;;;;0.80;0.80;;;0.90;99.90;;;;;;5050480;28;20052;-82
2022/01/06 10:13:01;;;;;;;0.90;0.90;;;0.90;99.90;;;;;;5073532;28;20056;-82
2022/01/06 10:15:28;;;;;;;0.80;0.80;;;1.00;99.90;;;;;;5055072;28;20041;-84
2022/01/06 10:17:55;;;;;;;0.80;0.80;;;1.00;99.90;;;;;;5078323;28;20108;-83
2022/01/06 10:20:27;;;;;;;0.80;0.80;;;1.00;99.90;;;;;;5062208;28;20098;-82
2022/01/06 10:22:55;;;;;;;0.85;0.85;;;1.10;99.90;;;;;;5070126;28;20048;-85
2022/01/06 10:25:22;;;;;;;1.08;1.08;;;1.10;99.90;;;;;;5053410;28;20434;-84
2022/01/06 10:27:51;;;;;;;0.80;0.80;;;1.10;99.90;;;;;;5066355;28;20115;-84
2022/01/06 10:30:17;;;;;;;0.70;0.70;;;1.10;99.90;;;;;;5048927;28;20053;-84
2022/01/06 10:32:44;;;;;;;0.80;0.80;;;1.20;99.90;;;;;;5080803;28;20037;-84
2022/01/06 10:35:15;;;;;;;0.80;0.80;;;1.20;99.90;;;;;;5073220;28;20067;-83
2022/01/06 10:37:42;;;;;;;0.95;0.95;;;1.20;99.90;;;;;;5056804;28;20117;-84
2022/01/06 10:40:22;;;;;;;0.80;0.80;;;1.30;99.90;;;;;;5064683;28;20066;-83
2022/01/06 10:42:50;;;;;;;0.80;0.80;;;1.30;99.90;;;;;;5071543;28;20475;-84
2022/01/06 10:45:22;;;;;;;0.80;0.80;;;1.40;99.90;;;;;;5050148;28;20041;-84
2022/01/06 10:47:50;;;;;;;0.80;0.80;;;1.50;99.90;;;;;;5047586;28;20037;-84
2022/01/06 10:50:18;;;;;;;0.80;0.80;;;1.60;99.90;;;;;;5065707;28;20461;-83
2022/01/06 10:52:52;;;;;;;0.80;0.80;;;1.60;99.90;;;;;;5063716;28;20044;-84
2022/01/06 10:55:23;;;;;;;;;;;1.70;99.90;;;;;;5066782;28;20102;-83
2022/01/06 10:58:16;;;;;;;0.80;0.80;;;1.70;99.90;;;;;;5046201;28;20016;-84
2022/01/06 11:01:03;;;;;;;0.80;0.80;;;1.80;99.90;;;;;;5064334;28;20068;-85
2022/01/06 11:03:33;;;;;;;1.00;1.00;;;1.90;99.90;;;;;;5072278;28;20483;-86
2022/01/06 11:06:00;;;;;;;0.80;0.80;;;2.00;99.90;;;;;;5052313;28;20041;-86
2022/01/06 11:08:32;;;;;;;0.90;0.90;;;2.00;99.90;;;;;;5065159;28;20068;-85
2022/01/06 11:13:42;;;;;;;0.80;0.80;;;2.20;99.90;;;;;;5068978;28;20066;-86
2022/01/06 11:16:12;;;;;;;1.15;1.05;;;2.30;99.90;;;;;;5056211;28;20124;-85
2022/01/06 11:18:40;;;;;;;0.95;0.95;;;2.40;99.90;;;;;;5071430;28;20055;-85
2022/01/06 11:21:14;;;;;;;0.90;0.90;;;2.50;99.90;;;;;;5050388;28;20101;-87
2022/01/06 11:23:42;;;;;;;1.55;1.45;;;2.60;99.90;;;;;;5074772;28;20045;-85
2022/01/06 11:26:18;;;;;;;0.90;0.90;;;2.60;99.90;;;;;;5071308;28;20037;-85
2022/01/06 11:28:55;;;;;;;0.70;0.70;;;2.70;99.90;;;;;;5045517;28;20045;-86
2022/01/06 11:31:27;;;;;;;3.33;1.60;;;2.80;99.90;;;;;;5073757;28;20044;-86
2022/01/06 11:33:56;;;;;;;0.77;0.77;;;2.90;99.90;;;;;;5068142;28;20138;-83
2022/01/06 11:36:32;;;;;;;1.23;1.13;;;2.80;99.90;;;;;;5048422;28;20488;-82
2022/01/06 11:39:04;;;;;;;0.75;0.75;;;2.90;99.90;;;;;;5059154;28;20123;-83
2022/01/06 11:41:36;;;;;;;1.00;1.00;;;2.90;99.90;;;;;;5066933;28;20098;-82
2022/01/06 11:44:02;;;;;;;0.75;0.75;;;3.00;99.90;;;;;;5072872;28;20109;-82
2022/01/06 11:46:41;;;;;;;1.38;1.27;;;3.20;99.90;;;;;;5074880;28;20063;-82
2022/01/06 11:49:07;;;;;;;1.17;1.13;;;3.20;99.90;;;;;;5074642;28;20185;-83
2022/01/06 11:51:36;;;;;;;0.80;0.80;;;3.30;99.90;;;;;;5074689;28;20586;-84
2022/01/06 11:54:18;;;;;;;0.90;0.90;;;3.30;99.90;;;;;;5068427;28;20049;-84
2022/01/06 11:56:51;;;;;;;0.70;0.70;;;3.30;99.90;;;;;;5058015;28;20082;-84
2022/01/06 11:59:29;;;;;;;1.20;1.10;;;3.40;99.90;;;;;;5077724;28;20048;-84
2022/01/06 12:01:55;;;;;;;0.80;0.80;;;3.40;99.90;;;;;;5059751;28;20052;-83
2022/01/06 12:04:23;;;;;;;0.80;0.80;;;3.50;99.90;;;;;;5076643;28;20055;-83
2022/01/06 12:06:49;;;;;;;0.70;0.70;;;3.50;99.90;;;;;;5072839;28;20048;-83
2022/01/06 12:09:19;;;;;;;30.63;2.15;;;3.60;99.90;;;;;;5079264;28;20060;-83
2022/01/06 12:11:46;;;;;;;0.82;0.82;;;3.60;99.90;;;;;;5058061;28;20082;-83
2022/01/06 12:14:22;;;;;;;1.80;1.70;;;3.70;99.90;;;;;;5066634;28;20124;-82
2022/01/06 12:16:50;;;;;;;0.80;0.80;;;3.80;99.90;;;;;;5077054;28;20533;-82
2022/01/06 12:19:23;;;;;;;3.13;1.73;;;3.80;99.90;;;;;;5077614;28;20095;-82
2022/01/06 12:21:49;;;;;;;0.70;0.70;;;3.90;99.90;;;;;;5077385;28;20095;-83
2022/01/06 12:24:15;;;;;;;0.98;0.98;;;3.90;99.90;;;;;;5059777;28;20389;-86
2022/01/06 12:26:41;;;;;;;0.70;0.70;;;4.00;99.90;;;;;;5070785;28;20115;-83
2022/01/06 12:29:19;;;;;;;6.05;2.00;;;4.00;99.90;;;;;;5071038;28;20048;-82
2022/01/06 12:31:47;;;;;;;0.75;0.75;;;4.00;99.90;;;;;;5079666;28;20106;-82
2022/01/06 12:34:14;;;;;;;0.70;0.70;;;4.10;99.90;;;;;;5057296;28;20060;-82
2022/01/06 12:36:43;;;;;;;0.80;0.80;;;4.00;99.90;;;;;;5067789;28;20083;-83
2022/01/06 12:39:19;;;;;;;0.82;0.82;;;4.10;99.90;;;;;;5070826;28;20036;-83
2022/01/06 12:42:08;;;;;;;0.80;0.80;;;3.90;99.90;;;;;;5073755;28;20040;-83
2022/01/06 12:44:33;;;;;;;0.70;0.70;;;4.10;99.90;;;;;;5077414;28;20064;-83
2022/01/06 12:46:59;;;;;;;0.80;0.80;;;4.10;99.90;;;;;;5078496;28;20066;-83
2022/01/06 12:49:28;;;;;;;0.70;0.70;;;4.60;99.90;;;;;;5073238;28;20044;-84
2022/01/06 12:51:54;;;;;;;1.48;1.00;;;4.10;99.90;;;;;;5078749;28;20054;-82
2022/01/06 12:54:22;;;;;;;0.73;0.73;;;4.20;99.90;;;;;;5058407;28;20072;-83
2022/01/06 12:57:00;;;;;;;3.28;1.30;;;4.20;99.90;;;;;;5073764;28;20178;-82
2022/01/06 12:59:34;;;;;;;2.85;1.35;;;4.40;99.90;;;;;;5059397;28;20032;-82
2022/01/06 13:02:02;;;;;;;0.80;0.80;;;4.30;99.90;;;;;;5053529;28;20132;-85
2022/01/06 13:04:32;;;;;;;1.13;1.13;;;4.20;99.90;;;;;;5056084;28;20088;-84